METAR Data
IDs: Format: Raw Decoded Include TAF

Data at: 0701 UTC 01 Aug 2021

ESOK 010650Z AUTO 16006KT 9999 FEW019/// BKN042/// 16/13 Q0995